Zhoucun, China
Current Conditions -  °F | °C
As of 9:00 AM on Sunday 26 Oct 2014 (Local Time) from ZSJN Reporting Station
Haze Haze  
Wind Chill: 64°   Ceiling: Unl
Heat Index: 64°   Visibility: 1.3mi
Dew Point: 55°   Wind: 4mph
Humidity: 73%   Direction: 50°NE
Pressure: 30.09"   Gusts: NA
Location:  36.8°N, 117.84°E
Report Text: ZSJN 260100Z 05002MPS 020V080 2200 BR NSC 18/13 Q1019 NOSIG
Loading
Personal Weather Stations






























Interactive Weather Map
Tropical Storm Tracking
New forecast layout! Learn more

10-Day Weather Forecast

Advertisements
Track Severe Weather on mobile